createdAt,value
2018-09-24T00:00:13.749Z,31.2
2018-09-24T00:01:00.994Z,31.2
2018-09-24T00:01:50.764Z,31.2
2018-09-24T00:02:41.437Z,31.2
2018-09-24T00:03:31.481Z,31.2
2018-09-24T00:04:21.539Z,31.2
2018-09-24T00:05:11.307Z,31.2
2018-09-24T00:06:01.681Z,31.2
2018-09-24T00:06:51.731Z,31.2
2018-09-24T00:07:41.874Z,31.2
2018-09-24T00:08:31.853Z,31.2
2018-09-24T00:09:21.655Z,31.2
2018-09-24T00:10:12.254Z,31.2
2018-09-24T00:11:01.763Z,31.2
2018-09-24T00:11:52.126Z,31.2
2018-09-24T00:12:42.158Z,31.2
2018-09-24T00:13:31.350Z,31.2
2018-09-24T00:14:21.964Z,31.2
2018-09-24T00:15:12.385Z,31.2
2018-09-24T00:16:02.433Z,31.2
2018-09-24T00:16:51.917Z,31.2
2018-09-24T00:17:42.291Z,31.2
2018-09-24T00:18:32.887Z,31.2
2018-09-24T00:19:22.690Z,31.1
2018-09-24T00:20:12.720Z,31.1
2018-09-24T00:21:02.534Z,31.2
2018-09-24T00:21:52.338Z,31.1
2018-09-24T00:22:42.639Z,31.1
2018-09-24T00:23:32.977Z,31.1
2018-09-24T00:24:23.106Z,31.2
2018-09-24T00:25:12.824Z,31.2
2018-09-24T00:26:03.427Z,31.1
2018-09-24T00:26:52.674Z,31.2
2018-09-24T00:27:43.089Z,31.1
2018-09-24T00:28:33.937Z,31.2
2018-09-24T00:29:22.862Z,31.1
2018-09-24T00:30:13.202Z,31.1
2018-09-24T00:31:03.614Z,31.1
2018-09-24T00:31:53.039Z,31.1
2018-09-24T00:32:43.681Z,31.1
2018-09-24T00:33:33.016Z,31.1
2018-09-24T00:34:23.739Z,31.1
2018-09-24T00:35:13.707Z,31.1
2018-09-24T00:36:04.611Z,31.1
2018-09-24T00:36:53.573Z,31.1
2018-09-24T00:55:59.963Z,31.1
2018-09-24T00:56:49.496Z,31.1
2018-09-24T00:57:40.617Z,31.1
2018-09-24T00:58:30.132Z,31.1
2018-09-24T00:59:19.914Z,31.1
2018-09-24T01:00:10.532Z,31.1
2018-09-24T01:01:00.027Z,31.1
2018-09-24T01:01:50.356Z,31.1
2018-09-24T01:02:40.822Z,31.1
2018-09-24T01:03:30.484Z,31.1
2018-09-24T01:04:20.567Z,31.1
2018-09-24T01:05:10.049Z,31.1
2018-09-24T01:06:01.254Z,31.1
2018-09-24T01:06:50.723Z,31.1
2018-09-24T01:07:41.114Z,31.1
2018-09-24T01:08:30.856Z,31.1
2018-09-24T01:09:20.327Z,31.1
2018-09-24T01:10:10.729Z,31.1
2018-09-24T01:11:01.101Z,31.1
2018-09-24T01:11:50.831Z,31.1
2018-09-24T01:12:41.209Z,31.1
2018-09-24T01:13:31.229Z,31.1
2018-09-24T01:14:21.101Z,31.1
2018-09-24T01:15:11.651Z,31.1
2018-09-24T01:16:01.429Z,31.1
2018-09-24T01:16:51.752Z,31.1
2018-09-24T01:17:41.862Z,31.1
2018-09-24T01:18:31.360Z,31.1
2018-09-24T01:19:21.689Z,31.1
2018-09-24T01:20:11.208Z,31.1
2018-09-24T01:21:02.096Z,31.1
2018-09-24T01:21:52.158Z,31.1
2018-09-24T01:22:42.208Z,31.1
2018-09-24T01:23:32.013Z,31
2018-09-24T01:24:21.538Z,31.1
2018-09-24T01:25:11.846Z,31.1
2018-09-24T01:26:02.255Z,31.1
2018-09-24T01:26:52.016Z,31
2018-09-24T01:27:42.305Z,31.1
2018-09-24T01:28:32.120Z,31
2018-09-24T01:29:22.461Z,31
2018-09-24T01:30:12.241Z,31
2018-09-24T01:31:02.850Z,31.1
2018-09-24T01:31:52.900Z,31.1
2018-09-24T01:32:42.712Z,31.1
2018-09-24T01:33:32.500Z,31
2018-09-24T01:34:22.263Z,31
2018-09-24T01:35:12.047Z,31
2018-09-24T01:36:02.977Z,31
2018-09-24T01:36:53.025Z,31.1
2018-09-24T01:37:43.349Z,31
2018-09-24T01:38:33.147Z,31
2018-09-24T01:39:22.927Z,31
2018-09-24T01:40:12.995Z,31
2018-09-24T01:41:03.622Z,31
2018-09-24T01:41:53.722Z,31
2018-09-24T01:42:43.144Z,31
2018-09-24T01:43:33.509Z,31
2018-09-24T01:44:23.660Z,31
2018-09-24T01:45:13.388Z,31
2018-09-24T01:46:03.712Z,31
2018-09-24T01:46:53.764Z,31
2018-09-24T01:47:43.827Z,31
2018-09-24T01:48:33.932Z,31
2018-09-24T01:49:24.226Z,31
2018-09-24T01:50:14.550Z,30.9
2018-09-24T01:51:04.358Z,30.9
2018-09-24T01:51:54.408Z,31
2018-09-24T01:52:44.486Z,30.9
2018-09-24T01:53:34.004Z,30.9
2018-09-24T01:54:24.641Z,31
2018-09-24T01:55:14.416Z,30.9
2018-09-24T01:56:04.731Z,31
2018-09-24T01:56:54.542Z,31
2018-09-24T01:57:44.298Z,30.9
2018-09-24T01:58:34.968Z,30.9
2018-09-24T01:59:23.878Z,30.9
2018-09-24T02:00:15.076Z,30.9
2018-09-24T02:01:04.876Z,31
2018-09-24T02:01:54.918Z,30.9
2018-09-24T02:02:45.373Z,30.9
2018-09-24T02:03:35.328Z,30.9
2018-09-24T02:04:24.522Z,30.9
2018-09-24T02:05:15.676Z,30.9
2018-09-24T02:06:05.516Z,30.9
2018-09-24T02:06:55.568Z,30.9
2018-09-24T02:07:45.348Z,30.9
2018-09-24T02:08:35.385Z,30.9
2018-09-24T02:09:25.476Z,30.9
2018-09-24T02:10:15.234Z,30.9
2018-09-24T02:11:05.626Z,30.9
2018-09-24T02:11:55.955Z,30.9
2018-09-24T02:12:45.677Z,30.9
2018-09-24T02:13:35.480Z,30.9
2018-09-24T02:14:26.387Z,30.9
2018-09-24T02:15:15.031Z,30.9
2018-09-24T02:16:05.691Z,30.9
2018-09-24T02:16:56.131Z,30.9
2018-09-24T02:17:46.427Z,30.9
2018-09-24T02:18:36.977Z,30.9
2018-09-24T02:19:26.505Z,30.9
2018-09-24T02:20:15.989Z,30.9
2018-09-24T02:21:06.624Z,30.9
2018-09-24T02:21:56.721Z,30.9
2018-09-24T02:22:45.944Z,30.9
2018-09-24T02:23:35.955Z,30.9
2018-09-24T02:24:27.156Z,30.9
2018-09-24T02:25:16.367Z,30.9
2018-09-24T02:26:06.726Z,30.9
2018-09-24T02:26:56.808Z,30.9
2018-09-24T02:27:47.432Z,30.9
2018-09-24T02:28:37.221Z,30.9
2018-09-24T02:29:27.231Z,30.9
2018-09-24T02:30:17.066Z,30.9
2018-09-24T02:31:07.162Z,30.9
2018-09-24T02:31:57.202Z,30.9
2018-09-24T02:32:47.386Z,30.9
2018-09-24T02:33:37.309Z,30.9
2018-09-24T02:34:27.676Z,30.9
2018-09-24T02:35:17.163Z,30.9
2018-09-24T02:36:07.512Z,30.9
2018-09-24T02:36:57.297Z,30.9
2018-09-24T02:37:47.654Z,30.9
2018-09-24T02:38:37.122Z,30.9
2018-09-24T02:39:28.039Z,30.9
2018-09-24T02:40:18.069Z,30.9
2018-09-24T02:41:08.157Z,30.9
2018-09-24T02:41:58.444Z,30.9
2018-09-24T02:42:48.003Z,30.9
2018-09-24T02:43:38.342Z,30.9
2018-09-24T02:44:28.190Z,30.9
2018-09-24T02:45:18.496Z,30.9
2018-09-24T02:46:08.286Z,30.9
2018-09-24T02:46:58.285Z,30.9
2018-09-24T02:47:48.671Z,30.9
2018-09-24T02:48:38.407Z,30.9
2018-09-24T02:49:29.087Z,30.9
2018-09-24T02:50:18.600Z,30.9
2018-09-24T02:51:08.370Z,30.8
2018-09-24T02:51:58.695Z,30.9
2018-09-24T02:52:49.058Z,30.9
2018-09-24T02:53:38.235Z,30.9
2018-09-24T02:54:29.125Z,30.9
2018-09-24T02:55:18.138Z,30.9
2018-09-24T02:56:09.020Z,30.9
2018-09-24T02:56:59.575Z,30.9
2018-09-24T02:57:49.420Z,30.9
2018-09-24T02:58:39.522Z,30.9
2018-09-24T02:59:29.511Z,30.8
2018-09-24T03:00:19.318Z,30.9
2018-09-24T03:01:09.691Z,30.9
2018-09-24T03:01:59.764Z,30.9
2018-09-24T03:02:49.629Z,30.8
2018-09-24T03:03:39.285Z,30.9
2018-09-24T03:04:29.932Z,30.9
2018-09-24T03:05:20.000Z,30.9
2018-09-24T03:06:10.067Z,30.8
2018-09-24T03:06:59.759Z,30.8
2018-09-24T03:07:50.170Z,30.9
2018-09-24T03:08:39.994Z,30.9
2018-09-24T03:09:30.343Z,30.8
2018-09-24T03:10:20.375Z,30.9
2018-09-24T03:11:10.131Z,30.8
2018-09-24T03:11:59.702Z,30.8
2018-09-24T03:12:50.018Z,30.8
2018-09-24T03:13:40.315Z,30.8
2018-09-24T03:14:30.945Z,30.8
2018-09-24T03:15:20.732Z,30.8
2018-09-24T03:16:10.533Z,30.8
2018-09-24T03:17:01.112Z,30.8
2018-09-24T03:17:50.967Z,30.8
2018-09-24T03:18:40.991Z,30.8
2018-09-24T03:19:30.529Z,30.8
2018-09-24T03:20:20.561Z,30.8
2018-09-24T03:21:11.159Z,30.8
2018-09-24T03:22:01.241Z,30.8
2018-09-24T03:22:50.464Z,30.8
2018-09-24T03:23:41.628Z,30.8
2018-09-24T03:24:31.126Z,30.8
2018-09-24T03:25:22.461Z,30.8
2018-09-24T03:26:12.235Z,30.8
2018-09-24T03:27:01.984Z,30.8
2018-09-24T03:27:51.433Z,30.8
2018-09-24T03:28:41.182Z,30.8
2018-09-24T03:29:30.956Z,30.8
2018-09-24T03:30:22.188Z,30.8
2018-09-24T03:31:11.396Z,30.8
2018-09-24T03:32:01.808Z,30.8
2018-09-24T03:32:51.493Z,30.8
2018-09-24T03:33:41.895Z,30.8
2018-09-24T03:34:32.172Z,30.8
2018-09-24T03:35:22.255Z,30.8
2018-09-24T03:36:11.153Z,30.8
2018-09-24T03:37:02.403Z,30.8
2018-09-24T03:37:52.413Z,30.8
2018-09-24T03:38:42.546Z,30.8
2018-09-24T03:39:32.575Z,30.8
2018-09-24T03:40:22.630Z,30.8
2018-09-24T03:41:12.473Z,30.8
2018-09-24T03:42:03.638Z,30.8
2018-09-24T03:42:52.495Z,30.8
2018-09-24T03:43:42.875Z,30.8
2018-09-24T03:44:32.364Z,30.8
2018-09-24T03:45:22.759Z,30.8
2018-09-24T03:46:12.507Z,30.8
2018-09-24T03:47:02.574Z,30.8
2018-09-24T03:47:52.890Z,30.8
2018-09-24T03:48:42.960Z,30.8
2018-09-24T03:49:32.722Z,30.8
2018-09-24T03:50:23.622Z,30.8
2018-09-24T03:51:13.151Z,30.8
2018-09-24T03:52:03.551Z,30.8
2018-09-24T03:52:52.409Z,30.8
2018-09-24T03:53:43.642Z,30.8
2018-09-24T03:54:33.448Z,30.8
2018-09-24T03:55:23.811Z,30.8
2018-09-24T03:56:13.213Z,30.8
2018-09-24T03:57:03.559Z,30.8
2018-09-24T03:57:53.391Z,30.8
2018-09-24T03:58:43.711Z,30.8
2018-09-24T03:59:33.484Z,30.8
2018-09-24T04:00:23.841Z,30.8
2018-09-24T04:01:13.922Z,30.8
2018-09-24T04:02:03.716Z,30.7
2018-09-24T04:02:54.039Z,30.8
2018-09-24T04:03:44.436Z,30.7
2018-09-24T04:04:33.886Z,30.7
2018-09-24T04:05:24.543Z,30.8
2018-09-24T04:06:14.584Z,30.7
2018-09-24T04:07:04.101Z,30.8
2018-09-24T04:07:54.690Z,30.7
2018-09-24T04:08:44.495Z,30.7
2018-09-24T04:09:35.398Z,30.7
2018-09-24T04:10:24.329Z,30.8
2018-09-24T04:11:14.943Z,30.7
2018-09-24T04:12:04.184Z,30.7
2018-09-24T04:12:55.083Z,30.7
2018-09-24T04:13:44.553Z,30.7
2018-09-24T04:14:35.213Z,30.7
2018-09-24T04:15:24.683Z,30.7
2018-09-24T04:16:15.070Z,30.7
2018-09-24T04:17:04.833Z,30.7
2018-09-24T04:17:55.177Z,30.7
2018-09-24T04:18:45.250Z,30.7
2018-09-24T04:19:35.945Z,30.7
2018-09-24T04:20:25.641Z,30.7
2018-09-24T04:21:15.675Z,30.7
2018-09-24T04:22:04.930Z,30.7
2018-09-24T04:22:54.444Z,30.7
2018-09-24T04:23:44.745Z,30.7
2018-09-24T04:24:35.990Z,30.7
2018-09-24T04:25:25.815Z,30.7
2018-09-24T04:26:17.108Z,30.7
2018-09-24T04:27:05.564Z,30.7
2018-09-24T04:27:56.179Z,30.7
2018-09-24T04:28:45.991Z,30.7
2018-09-24T04:29:34.892Z,30.7
2018-09-24T04:30:25.826Z,30.7
2018-09-24T04:31:16.508Z,30.7
2018-09-24T04:32:06.519Z,30.7
2018-09-24T04:32:56.899Z,30.7
2018-09-24T04:33:46.674Z,30.7
2018-09-24T04:34:36.485Z,30.7
2018-09-24T04:35:26.819Z,30.7
2018-09-24T04:36:17.104Z,30.7
2018-09-24T04:37:06.616Z,30.7
2018-09-24T04:37:56.647Z,30.7
2018-09-24T04:38:46.746Z,30.6
2018-09-24T04:39:37.658Z,30.7
2018-09-24T04:40:26.576Z,30.7
2018-09-24T04:41:16.947Z,30.6
2018-09-24T04:42:07.406Z,30.6
2018-09-24T04:42:57.104Z,30.7
2018-09-24T04:43:47.164Z,30.7
2018-09-24T04:44:36.905Z,30.7
2018-09-24T04:45:27.529Z,30.6
2018-09-24T04:46:17.279Z,30.7
2018-09-24T04:47:07.920Z,30.6
2018-09-24T04:47:57.401Z,30.6
2018-09-24T04:48:47.173Z,30.6
2018-09-24T04:49:37.828Z,30.6
2018-09-24T04:50:27.885Z,30.6
2018-09-24T04:51:17.686Z,30.6
2018-09-24T04:52:08.495Z,30.6
2018-09-24T04:52:58.058Z,30.7
2018-09-24T04:53:47.845Z,30.6
2018-09-24T04:54:37.925Z,30.6
2018-09-24T04:55:27.991Z,30.6
2018-09-24T04:56:18.079Z,30.6
2018-09-24T04:57:08.916Z,30.6
2018-09-24T04:57:58.148Z,30.6
2018-09-24T04:58:48.684Z,30.6
2018-09-24T04:59:38.420Z,30.6
2018-09-24T05:00:28.128Z,30.6
2018-09-24T05:01:18.705Z,30.4
2018-09-24T05:02:08.783Z,30.3
2018-09-24T05:02:58.545Z,30
2018-09-24T05:03:48.627Z,29.8
2018-09-24T05:04:38.874Z,29.6
2018-09-24T05:05:28.998Z,29.5
2018-09-24T05:06:18.208Z,29.3
2018-09-24T05:07:09.648Z,29.2
2018-09-24T05:24:51.566Z,27.9
2018-09-24T05:25:41.037Z,27.9
2018-09-24T05:26:30.844Z,27.9
2018-09-24T05:28:10.929Z,27.8
2018-09-24T05:29:01.274Z,27.8
2018-09-24T05:29:51.453Z,27.7
2018-09-24T05:30:41.396Z,27.7
2018-09-24T05:31:31.444Z,27.7
2018-09-24T05:32:21.983Z,27.6
2018-09-24T05:33:11.593Z,27.6
2018-09-24T05:34:01.378Z,27.6
2018-09-24T05:34:52.213Z,27.6
2018-09-24T05:35:41.480Z,27.6
2018-09-24T05:36:31.068Z,27.6
2018-09-24T05:37:21.905Z,27.6
2018-09-24T05:38:11.680Z,27.6
2018-09-24T05:39:01.469Z,27.5
2018-09-24T05:39:52.103Z,27.5
2018-09-24T05:40:42.148Z,27.5
2018-09-24T05:41:31.953Z,27.5
2018-09-24T05:42:21.991Z,27.4
2018-09-24T05:43:11.835Z,27.4
2018-09-24T05:44:02.404Z,27.3
2018-09-24T05:44:51.903Z,27.3
2018-09-24T05:45:42.208Z,27.2
2018-09-24T05:46:32.614Z,27.1
2018-09-24T05:47:22.075Z,27.1
2018-09-24T05:48:12.436Z,27
2018-09-24T05:49:02.235Z,26.9
2018-09-24T05:49:52.832Z,26.8
2018-09-24T05:50:42.827Z,26.8
2018-09-24T05:51:32.939Z,26.6
2018-09-24T05:52:24.338Z,32.5
2018-09-24T05:53:13.424Z,33.7
2018-09-24T05:54:03.761Z,35.8
2018-09-24T05:54:53.553Z,37.4
2018-09-24T05:55:45.264Z,37.3
2018-09-24T05:56:34.556Z,35.1
2018-09-24T05:57:23.437Z,32.6
2018-09-24T05:58:13.477Z,31.1
2018-09-24T05:59:03.290Z,30.3
2018-09-24T05:59:53.571Z,29.8
2018-09-24T06:00:44.202Z,29.4
2018-09-24T06:01:33.471Z,29.1
2018-09-24T06:02:23.790Z,28.9
2018-09-24T06:03:13.572Z,28.8
2018-09-24T06:04:03.672Z,28.6
2018-09-24T06:04:54.060Z,28.4
2018-09-24T06:05:44.546Z,34.1
2018-09-24T06:06:33.841Z,35.6
2018-09-24T06:07:23.839Z,37.5
2018-09-24T06:08:14.249Z,38.7
2018-09-24T06:09:04.003Z,39.1
2018-09-24T06:09:54.358Z,39.1
2018-09-24T06:10:44.976Z,39.1
2018-09-24T06:11:35.141Z,39.1
2018-09-24T06:12:24.876Z,39.3
2018-09-24T06:13:15.209Z,39.6
2018-09-24T06:14:05.196Z,39.8
2018-09-24T06:14:53.873Z,40.1
2018-09-24T06:15:44.551Z,40.3
2018-09-24T06:16:34.893Z,40.4
2018-09-24T06:17:24.909Z,40.5
2018-09-24T06:18:14.998Z,40.6
2018-09-24T06:19:05.967Z,40.8
2018-09-24T06:19:54.602Z,40.9
2018-09-24T06:20:44.518Z,41.1
2018-09-24T06:21:35.505Z,41.3
2018-09-24T06:22:24.785Z,41.4
2018-09-24T06:23:14.811Z,41.5
2018-09-24T06:24:05.411Z,41.6
2018-09-24T06:24:55.199Z,41.8
2018-09-24T06:25:45.826Z,41.9
2018-09-24T06:26:35.330Z,42.1
2018-09-24T06:27:25.373Z,42.2
2018-09-24T06:28:15.846Z,42.4
2018-09-24T06:29:05.253Z,42.5
2018-09-24T06:29:55.865Z,42.6
2018-09-24T06:30:45.922Z,42.8
2018-09-24T06:31:35.705Z,42.9
2018-09-24T06:32:25.797Z,43.1
2018-09-24T06:33:16.137Z,43.2
2018-09-24T06:34:05.639Z,43.3
2018-09-24T06:34:55.984Z,43.5
2018-09-24T06:35:46.046Z,43.6
2018-09-24T06:36:36.131Z,43.8
2018-09-24T06:37:25.592Z,43.9
2018-09-24T06:38:15.925Z,44.1
2018-09-24T06:39:06.564Z,44.2
2018-09-24T06:39:56.637Z,44.1
2018-09-24T06:40:46.401Z,44.2
2018-09-24T06:41:36.722Z,44.3
2018-09-24T06:42:27.064Z,44.4
2018-09-24T06:43:17.010Z,44.6
2018-09-24T06:44:06.157Z,44.8
2018-09-24T06:44:57.020Z,44.9
2018-09-24T06:45:47.199Z,45
2018-09-24T06:46:37.476Z,45.1
2018-09-24T06:47:27.521Z,45.3
2018-09-24T06:48:17.322Z,45.4
2018-09-24T06:49:06.451Z,45.5
2018-09-24T06:49:57.435Z,45.6
2018-09-24T06:50:47.212Z,45.8
2018-09-24T06:51:37.567Z,45.8
2018-09-24T06:52:27.904Z,45.8
2018-09-24T06:53:17.088Z,45.9
2018-09-24T06:54:07.525Z,46
2018-09-24T06:54:57.266Z,46.2
2018-09-24T06:55:46.988Z,46.3
2018-09-24T06:56:37.966Z,46.5
2018-09-24T06:57:28.201Z,46.6
2018-09-24T06:58:17.483Z,46.8
2018-09-24T06:59:08.118Z,46.9
2018-09-24T06:59:57.916Z,47.1
2018-09-24T07:00:47.701Z,47.3
2018-09-24T07:01:37.990Z,47.4
2018-09-24T07:02:28.408Z,47.5
2018-09-24T07:03:18.461Z,47.6
2018-09-24T07:04:08.471Z,47.8
2018-09-24T07:04:58.361Z,47.9
2018-09-24T07:05:48.583Z,48.1
2018-09-24T07:06:38.419Z,48.3
2018-09-24T07:07:28.745Z,48.4
2018-09-24T07:08:18.261Z,48.6
2018-09-24T07:09:08.857Z,48.7
2018-09-24T07:09:58.893Z,48.8
2018-09-24T07:10:48.690Z,48.9
2018-09-24T07:11:39.565Z,49.1
2018-09-24T07:12:29.567Z,49.3
2018-09-24T07:13:20.069Z,49.4
2018-09-24T07:14:09.710Z,49.6
2018-09-24T07:14:58.742Z,49.7
2018-09-24T07:15:49.343Z,49.9
2018-09-24T07:16:39.097Z,50
2018-09-24T07:17:29.200Z,50.1
2018-09-24T07:18:19.790Z,50.3
2018-09-24T07:19:09.043Z,50.4
2018-09-24T07:19:59.385Z,50.6
2018-09-24T07:20:49.740Z,50.8
2018-09-24T07:21:40.194Z,50.9
2018-09-24T07:22:29.845Z,51.1
2018-09-24T07:23:20.492Z,51.3
2018-09-24T07:24:08.927Z,51.4
2018-09-24T07:25:00.074Z,51.6
2018-09-24T07:25:50.140Z,51.7
2018-09-24T07:26:39.616Z,51.8
2018-09-24T07:29:09.879Z,52
2018-09-24T07:30:00.482Z,52.1
2018-09-24T07:30:50.309Z,52.3
2018-09-24T07:31:40.610Z,52.5
2018-09-24T07:32:30.358Z,52.7
2018-09-24T07:33:21.947Z,52.8
2018-09-24T07:34:10.911Z,52.9
2018-09-24T07:35:00.947Z,53.1
2018-09-24T07:35:50.692Z,53.3
2018-09-24T07:36:40.677Z,53.4
2018-09-24T07:37:31.022Z,53.6
2018-09-24T07:38:20.852Z,53.8
2018-09-24T07:39:10.836Z,53.9
2018-09-24T07:40:00.961Z,54.1
2018-09-24T07:40:50.489Z,54.2
2018-09-24T07:41:41.346Z,54.4
2018-09-24T07:42:31.396Z,54.5
2018-09-24T07:43:21.861Z,54.7
2018-09-24T07:44:11.836Z,54.9
2018-09-24T07:45:01.604Z,55
2018-09-24T07:45:50.899Z,55.2
2018-09-24T07:46:41.731Z,55.3
2018-09-24T07:47:31.198Z,55.5
2018-09-24T07:48:21.848Z,55.6
2018-09-24T07:49:11.877Z,55.8
2018-09-24T07:50:01.689Z,55.9
2018-09-24T07:50:51.794Z,56.1
2018-09-24T07:51:41.813Z,56.3
2018-09-24T07:52:32.146Z,56.4
2018-09-24T07:53:21.680Z,56.6
2018-09-24T07:54:12.807Z,56.8
2018-09-24T07:55:01.586Z,56.9
2018-09-24T07:55:51.918Z,57
2018-09-24T07:56:42.485Z,57.2
2018-09-24T07:57:32.293Z,57.3
2018-09-24T07:58:22.071Z,57.5
2018-09-24T07:59:12.191Z,57.7
2018-09-24T08:00:02.230Z,57.8
2018-09-24T08:00:52.776Z,58
2018-09-24T08:01:42.580Z,58.1
2018-09-24T08:02:32.070Z,58.3
2018-09-24T08:03:22.724Z,58.4
2018-09-24T08:05:02.607Z,58.7
2018-09-24T08:05:53.182Z,58.8
2018-09-24T08:06:42.987Z,58.9
2018-09-24T08:07:34.427Z,59
2018-09-24T08:08:23.733Z,59.1
2018-09-24T08:09:13.212Z,59.2
2018-09-24T08:10:03.500Z,59.4
2018-09-24T08:10:53.797Z,59.6
2018-09-24T08:11:43.327Z,59.7
2018-09-24T08:12:33.142Z,59.8
2018-09-24T08:13:25.106Z,59.9
2018-09-24T08:14:13.612Z,60.1
2018-09-24T08:15:03.627Z,60.2
2018-09-24T08:15:54.263Z,60.3
2018-09-24T08:16:43.515Z,60.4
2018-09-24T08:17:33.808Z,60.6
2018-09-24T08:18:24.249Z,60.8
2018-09-24T08:19:14.206Z,60.9
2018-09-24T08:20:03.434Z,61
2018-09-24T08:20:53.932Z,61.1
2018-09-24T08:21:44.438Z,61.3
2018-09-24T08:22:34.478Z,61.4
2018-09-24T08:23:25.135Z,61.6
2018-09-24T08:24:14.613Z,61.6
2018-09-24T08:25:04.387Z,61.8
2018-09-24T08:25:55.021Z,61.9
2018-09-24T08:26:44.480Z,62
2018-09-24T08:27:33.991Z,62.1
2018-09-24T08:28:24.593Z,62.3
2018-09-24T08:29:14.388Z,62.3
2018-09-24T08:30:04.756Z,62.4
2018-09-24T08:30:54.805Z,62.6
2018-09-24T08:31:45.470Z,62.7
2018-09-24T08:32:35.265Z,62.8
2018-09-24T08:33:24.980Z,62.9
2018-09-24T08:34:15.337Z,63.1
2018-09-24T08:35:05.385Z,63.2
2018-09-24T08:35:55.196Z,63.3
2018-09-24T08:36:45.257Z,63.4
2018-09-24T08:37:35.055Z,63.5
2018-09-24T08:38:25.397Z,63.6
2018-09-24T08:39:15.222Z,63.8
2018-09-24T08:40:05.770Z,63.9
2018-09-24T08:40:55.574Z,63.9
2018-09-24T08:41:45.065Z,64.1
2018-09-24T08:42:35.695Z,64.2
2018-09-24T08:43:26.048Z,64.3
2018-09-24T08:44:17.024Z,64.4
2018-09-24T08:45:06.189Z,64.5
2018-09-24T08:45:55.749Z,64.6
2018-09-24T08:46:46.065Z,64.7
2018-09-24T08:47:35.822Z,64.8
2018-09-24T08:48:26.440Z,64.9
2018-09-24T08:49:16.205Z,65
2018-09-24T08:50:06.274Z,65.1
2018-09-24T08:50:56.641Z,65.3
2018-09-24T08:51:46.406Z,65.3
2018-09-24T08:52:36.739Z,65.4
2018-09-24T08:53:27.281Z,65.5
2018-09-24T08:54:16.671Z,65.6
2018-09-24T08:55:05.882Z,65.6
2018-09-24T08:55:56.998Z,65.8
2018-09-24T08:56:47.449Z,65.9
2018-09-24T08:57:36.849Z,65.9
2018-09-24T08:58:26.941Z,66.1
2018-09-24T08:59:17.068Z,66.1
2018-09-24T09:00:06.236Z,66.3
2018-09-24T09:00:56.816Z,66.3
2018-09-24T09:01:47.451Z,66.4
2018-09-24T09:02:37.442Z,66.4
2018-09-24T09:03:27.068Z,66.5
2018-09-24T09:04:17.702Z,66.6
2018-09-24T09:05:06.553Z,66.7
2018-09-24T09:05:58.013Z,66.8
2018-09-24T09:06:47.549Z,66.9
2018-09-24T09:07:37.887Z,67
2018-09-24T09:08:29.156Z,67.1
2018-09-24T09:09:18.015Z,67.1
2018-09-24T09:10:07.850Z,67.2
2018-09-24T09:10:58.119Z,67.3
2018-09-24T09:11:47.377Z,67.3
2018-09-24T09:12:38.288Z,67.5
2018-09-24T09:13:28.377Z,67.6
2018-09-24T09:14:18.667Z,67.6
2018-09-24T09:15:07.932Z,67.7
2018-09-24T09:15:58.830Z,67.8
2018-09-24T09:16:48.567Z,67.8
2018-09-24T09:17:38.654Z,67.9
2018-09-24T09:18:28.738Z,68.1
2018-09-24T09:19:18.776Z,68.1
2018-09-24T09:20:08.276Z,68.2
2018-09-24T09:20:58.940Z,68.3
2018-09-24T09:21:48.689Z,68.4
2018-09-24T09:22:39.052Z,68.3
2018-09-24T16:40:06.521Z,35.6
2018-09-24T16:40:55.769Z,35.5
2018-09-24T16:41:45.256Z,35.5
2018-09-24T16:42:35.942Z,35.4
2018-09-24T16:43:26.721Z,35.4
2018-09-24T16:44:16.041Z,35.4
2018-09-24T16:45:05.849Z,35.4
2018-09-24T16:45:55.894Z,35.4
2018-09-24T16:46:46.203Z,35.4
2018-09-24T16:47:36.478Z,35.4
2018-09-24T16:48:26.337Z,35.3
2018-09-24T16:49:15.853Z,35.3
2018-09-24T16:50:07.387Z,35.3
2018-09-24T16:50:56.543Z,35.3
2018-09-24T16:51:46.293Z,35.3
2018-09-24T16:52:36.065Z,35.3
2018-09-24T16:53:26.723Z,35.2
2018-09-24T16:54:16.482Z,35.3
2018-09-24T16:55:06.550Z,35.2
2018-09-24T16:55:56.602Z,35.2
2018-09-24T16:56:46.374Z,35.2
2018-09-24T16:57:37.022Z,35.2
2018-09-24T16:58:27.088Z,35.2
2018-09-24T16:59:16.840Z,35.2
2018-09-24T17:00:07.217Z,35.1
2018-09-24T17:00:57.582Z,35.1
2018-09-24T17:01:47.640Z,35.1
2018-09-24T17:02:36.295Z,35.1
2018-09-24T17:03:27.853Z,35.1
2018-09-24T17:04:16.687Z,35.1
2018-09-24T17:05:06.767Z,35.1
2018-09-24T17:05:57.634Z,35.1
2018-09-24T17:06:47.955Z,35
2018-09-24T17:07:37.210Z,35
2018-09-24T17:08:27.567Z,35
2018-09-24T17:09:17.896Z,35
2018-09-24T17:10:07.680Z,35
2018-09-24T17:10:57.170Z,34.9
2018-09-24T17:11:49.334Z,35
2018-09-24T17:12:37.884Z,34.9
2018-09-24T17:13:28.214Z,34.9
2018-09-24T17:14:18.289Z,34.9
2018-09-24T17:15:08.099Z,34.9
2018-09-24T17:15:57.846Z,34.9
2018-09-24T17:16:48.432Z,34.9
2018-09-24T17:17:38.238Z,34.9
2018-09-24T17:18:28.061Z,34.9
2018-09-24T17:19:18.661Z,34.9
2018-09-24T17:20:08.148Z,34.9
2018-09-24T17:20:58.743Z,34.8
2018-09-24T17:21:48.311Z,34.8
2018-09-24T17:22:38.931Z,34.8
2018-09-24T17:23:28.196Z,34.8
2018-09-24T17:24:18.226Z,34.8
2018-09-24T17:25:09.144Z,34.8
2018-09-24T17:25:58.635Z,34.8
2018-09-24T17:26:49.513Z,34.8
2018-09-24T17:27:39.301Z,34.8
2018-09-24T17:28:29.058Z,34.8
2018-09-24T17:29:20.449Z,34.8
2018-09-24T17:30:08.959Z,34.8
2018-09-24T17:30:59.535Z,34.8
2018-09-24T17:31:49.308Z,34.8
2018-09-24T17:32:39.124Z,34.7
2018-09-24T17:33:29.486Z,34.7
2018-09-24T17:34:19.231Z,34.7
2018-09-24T17:35:09.826Z,34.7
2018-09-24T17:36:00.241Z,34.7
2018-09-24T17:36:49.967Z,34.7
2018-09-24T17:37:39.777Z,34.7
2018-09-24T17:38:29.825Z,34.7
2018-09-24T17:39:19.639Z,34.6
2018-09-24T17:40:10.246Z,34.6
2018-09-24T17:41:00.313Z,34.6
2018-09-24T17:41:49.517Z,34.6
2018-09-24T17:42:40.472Z,34.6
2018-09-24T17:43:29.104Z,34.6
2018-09-24T17:44:20.271Z,34.6
2018-09-24T17:45:10.636Z,34.6
2018-09-24T17:46:00.849Z,34.6
2018-09-24T17:46:50.463Z,34.6
2018-09-24T17:47:40.814Z,34.6
2018-09-24T17:48:30.858Z,34.6
2018-09-24T17:49:20.643Z,34.6
2018-09-24T17:50:10.400Z,34.6
2018-09-24T17:51:01.067Z,34.6
2018-09-24T17:51:50.831Z,34.6
2018-09-24T17:52:41.011Z,34.6
2018-09-24T17:53:31.215Z,34.6
2018-09-24T17:54:21.318Z,34.6
2018-09-24T17:55:11.109Z,34.6
2018-09-24T17:56:00.553Z,34.6
2018-09-24T17:56:51.453Z,34.5
2018-09-24T17:57:41.562Z,34.6
2018-09-24T17:58:31.863Z,34.6
2018-09-24T17:59:21.405Z,34.6
2018-09-24T18:00:12.185Z,34.5
2018-09-24T18:01:01.525Z,34.5
2018-09-24T18:01:52.119Z,34.5
2018-09-24T18:02:41.632Z,34.5
2018-09-24T18:03:32.232Z,34.5
2018-09-24T18:04:21.492Z,34.5
2018-09-24T18:05:11.595Z,34.4
2018-09-24T18:06:02.504Z,34.4
2018-09-24T18:06:51.390Z,34.4
2018-09-24T18:07:42.309Z,34.4
2018-09-24T18:08:31.787Z,34.3
2018-09-24T18:09:22.421Z,34.3
2018-09-24T18:10:12.186Z,34.3
2018-09-24T18:11:02.557Z,34.3
2018-09-24T18:11:52.294Z,34.3
2018-09-24T18:12:42.699Z,34.2
2018-09-24T18:13:32.191Z,34.2
2018-09-24T18:14:22.816Z,34.3
2018-09-24T18:15:12.343Z,34.2
2018-09-24T18:16:02.094Z,34.1
2018-09-24T18:16:52.723Z,34.2
2018-09-24T18:17:43.797Z,34.1
2018-09-24T18:18:33.136Z,34.1
2018-09-24T18:19:23.145Z,34
2018-09-24T18:20:13.241Z,33.9
2018-09-24T18:21:03.326Z,33.8
2018-09-24T18:21:52.568Z,33.8
2018-09-24T18:22:43.161Z,33.7
2018-09-24T18:23:32.933Z,33.6
2018-09-24T18:24:24.167Z,33.6
2018-09-24T18:25:13.629Z,33.6
2018-09-24T18:26:03.711Z,33.5
2018-09-24T18:26:54.013Z,33.5
2018-09-24T18:27:42.671Z,33.5
2018-09-24T18:28:34.118Z,33.4
2018-09-24T18:29:23.385Z,33.4
2018-09-24T18:30:13.472Z,33.4
2018-09-24T18:31:04.054Z,33.4
2018-09-24T18:31:53.651Z,33.4
2018-09-24T18:32:43.624Z,33.4
2018-09-24T18:33:34.271Z,33.4
2018-09-24T18:34:24.316Z,33.4
2018-09-24T18:35:14.094Z,33.4
2018-09-24T18:36:03.889Z,33.3
2018-09-24T18:36:54.769Z,33.3
2018-09-24T18:37:45.484Z,33.3
2018-09-24T18:38:34.351Z,33.3
2018-09-24T18:39:24.414Z,33.2
2018-09-24T18:40:14.763Z,33.2
2018-09-24T18:41:05.184Z,33.2
2018-09-24T18:41:54.900Z,33.2
2018-09-24T18:42:45.254Z,33.2
2018-09-24T18:43:34.746Z,33.1
2018-09-24T18:44:26.053Z,33.2
2018-09-24T18:45:14.916Z,33.1
2018-09-24T18:46:05.199Z,33.1
2018-09-24T18:46:54.961Z,33.1
2018-09-24T18:47:45.148Z,33
2018-09-24T18:48:35.106Z,32.8
2018-09-24T18:49:25.164Z,32.6
2018-09-24T18:50:15.548Z,32.4
2018-09-24T18:51:05.593Z,32.2
2018-09-24T18:51:55.908Z,31.9
2018-09-24T18:52:45.145Z,31.8
2018-09-24T18:53:35.480Z,31.6
2018-09-24T18:54:25.815Z,31.3
2018-09-24T18:55:15.345Z,31.1
2018-09-24T18:56:05.984Z,31
2018-09-24T18:56:55.475Z,30.9
2018-09-24T18:57:46.917Z,30.7
2018-09-24T18:58:36.152Z,30.6
2018-09-24T18:59:25.940Z,30.5
2018-09-24T19:00:16.283Z,30.4
2018-09-24T19:01:06.390Z,30.3
2018-09-24T19:01:56.410Z,30.2
2018-09-24T19:02:46.191Z,30.2
2018-09-24T19:03:36.247Z,30.1
2018-09-24T19:04:26.337Z,30